createdAt,value
2022-07-28T00:02:12.545Z,2.37
2022-07-28T00:04:44.705Z,2.80
2022-07-28T00:07:16.857Z,2.47
2022-07-28T00:09:49.074Z,2.10
2022-07-28T00:12:21.159Z,2.20
2022-07-28T00:14:53.098Z,1.90
2022-07-28T00:17:25.315Z,2.97
2022-07-28T00:19:57.418Z,2.20
2022-07-28T00:22:30.151Z,2.00
2022-07-28T00:25:03.102Z,2.40
2022-07-28T00:27:35.957Z,2.10
2022-07-28T00:30:10.093Z,2.30
2022-07-28T00:32:42.967Z,2.20
2022-07-28T00:35:15.690Z,2.03
2022-07-28T00:37:47.692Z,2.27
2022-07-28T00:40:21.254Z,2.00
2022-07-28T00:42:53.275Z,2.00
2022-07-28T00:45:25.314Z,2.50
2022-07-28T00:47:57.380Z,2.10
2022-07-28T00:50:29.807Z,2.20
2022-07-28T00:53:02.684Z,2.20
2022-07-28T00:56:05.413Z,2.33
2022-07-28T00:58:31.597Z,2.43
2022-07-28T01:01:08.881Z,2.10
2022-07-28T01:03:45.342Z,2.13
2022-07-28T01:06:32.547Z,2.23
2022-07-28T01:09:54.985Z,2.17
2022-07-28T01:12:51.039Z,2.27
2022-07-28T01:15:44.450Z,2.40
2022-07-28T01:18:31.567Z,1.80
2022-07-28T01:21:13.202Z,2.10
2022-07-28T01:24:21.730Z,2.43
2022-07-28T01:27:10.647Z,2.07
2022-07-28T01:30:17.038Z,2.17
2022-07-28T01:33:12.271Z,2.17
2022-07-28T01:36:02.844Z,2.07
2022-07-28T01:38:47.303Z,2.23
2022-07-28T01:41:23.429Z,1.90
2022-07-28T01:44:02.907Z,1.90
2022-07-28T01:46:38.541Z,2.23
2022-07-28T01:49:13.871Z,2.40
2022-07-28T01:51:48.159Z,2.40
2022-07-28T01:54:23.066Z,2.10
2022-07-28T01:57:01.069Z,1.90
2022-07-28T01:59:34.084Z,2.30
2022-07-28T02:02:08.969Z,2.40
2022-07-28T02:04:44.219Z,1.87
2022-07-28T02:07:19.524Z,2.35
2022-07-28T02:09:54.825Z,2.60
2022-07-28T02:12:30.516Z,2.80
2022-07-28T02:15:06.456Z,2.88
2022-07-28T02:17:44.893Z,2.70
2022-07-28T02:20:18.512Z,2.60
2022-07-28T02:22:53.097Z,2.70
2022-07-28T02:25:27.825Z,2.20
2022-07-28T02:28:05.983Z,2.10
2022-07-28T02:30:46.915Z,2.00
2022-07-28T02:33:59.294Z,2.40
2022-07-28T02:36:36.679Z,2.20
2022-07-28T02:39:21.719Z,2.10
2022-07-28T02:42:04.262Z,2.50
2022-07-28T02:44:42.670Z,1.83
2022-07-28T02:47:22.640Z,2.25
2022-07-28T02:49:58.354Z,2.30
2022-07-28T02:52:33.957Z,2.38
2022-07-28T02:55:07.214Z,2.22
2022-07-28T02:57:43.766Z,1.80
2022-07-28T03:00:16.859Z,1.98
2022-07-28T03:02:49.419Z,2.10
2022-07-28T03:05:23.015Z,2.35
2022-07-28T03:07:57.752Z,2.30
2022-07-28T03:10:33.131Z,2.15
2022-07-28T03:13:07.259Z,3.30
2022-07-28T03:15:40.267Z,2.30
2022-07-28T03:18:13.492Z,2.47
2022-07-28T03:20:46.062Z,2.40
2022-07-28T03:23:18.759Z,2.13
2022-07-28T03:25:54.244Z,1.83
2022-07-28T03:28:30.727Z,2.30
2022-07-28T03:31:09.520Z,2.55
2022-07-28T03:33:42.800Z,2.10
2022-07-28T03:36:18.986Z,1.90
2022-07-28T03:39:02.968Z,2.28
2022-07-28T03:41:38.675Z,2.28
2022-07-28T03:44:14.939Z,2.00
2022-07-28T03:47:00.210Z,2.28
2022-07-28T03:49:32.363Z,2.10
2022-07-28T03:52:05.099Z,2.15
2022-07-28T03:54:37.270Z,2.15
2022-07-28T03:57:09.905Z,2.55
2022-07-28T03:59:42.867Z,2.45
2022-07-28T04:02:15.015Z,2.00
2022-07-28T04:04:47.040Z,2.85
2022-07-28T04:07:19.089Z,2.33
2022-07-28T04:09:51.096Z,2.17
2022-07-28T04:12:23.024Z,2.10
2022-07-28T04:14:55.042Z,2.47
2022-07-28T04:17:27.020Z,2.65
2022-07-28T04:19:59.002Z,2.22
2022-07-28T04:22:30.900Z,2.13
2022-07-28T04:25:03.204Z,2.30
2022-07-28T04:27:36.649Z,2.30
2022-07-28T04:30:13.274Z,2.50
2022-07-28T04:32:51.154Z,2.80
2022-07-28T04:35:24.997Z,2.75
2022-07-28T04:37:58.925Z,2.30
2022-07-28T04:40:31.529Z,2.00
2022-07-28T04:43:05.982Z,2.95
2022-07-28T04:45:38.788Z,2.15
2022-07-28T04:48:18.551Z,2.20
2022-07-28T04:50:52.593Z,2.30
2022-07-28T04:53:25.093Z,2.47
2022-07-28T04:55:57.375Z,2.50
2022-07-28T04:58:30.945Z,2.10
2022-07-28T05:01:03.263Z,2.57
2022-07-28T05:03:36.467Z,2.60
2022-07-28T05:06:08.554Z,2.40
2022-07-28T05:08:40.525Z,3.00
2022-07-28T05:11:12.553Z,2.60
2022-07-28T05:13:44.530Z,2.47
2022-07-28T05:16:16.632Z,2.40
2022-07-28T05:18:49.950Z,2.47
2022-07-28T05:21:22.695Z,2.40
2022-07-28T05:23:55.445Z,2.30
2022-07-28T05:26:28.605Z,2.63
2022-07-28T05:29:03.054Z,2.50
2022-07-28T05:32:17.245Z,2.40
2022-07-28T05:34:49.894Z,2.50
2022-07-28T05:37:21.977Z,2.93
2022-07-28T05:39:53.911Z,3.00
2022-07-28T05:42:28.364Z,3.10
2022-07-28T05:45:15.586Z,2.50
2022-07-28T05:47:52.500Z,2.43
2022-07-28T05:50:27.539Z,2.47
2022-07-28T05:52:59.839Z,2.97
2022-07-28T05:55:31.820Z,2.70
2022-07-28T05:58:03.996Z,3.00
2022-07-28T06:00:36.216Z,3.23
2022-07-28T06:03:08.549Z,3.20
2022-07-28T06:06:00.758Z,3.10
2022-07-28T06:08:34.631Z,2.77
2022-07-28T06:11:11.391Z,3.20
2022-07-28T06:13:46.692Z,2.70
2022-07-28T06:16:21.073Z,2.50
2022-07-28T06:18:53.994Z,2.57
2022-07-28T06:21:26.231Z,2.80
2022-07-28T06:23:58.501Z,3.00
2022-07-28T06:26:31.552Z,3.10
2022-07-28T06:29:04.380Z,3.20
2022-07-28T06:31:36.966Z,3.00
2022-07-28T06:34:10.224Z,2.70
2022-07-28T06:36:42.261Z,2.67
2022-07-28T06:39:14.471Z,3.10
2022-07-28T06:41:46.484Z,3.30
2022-07-28T06:44:19.970Z,3.67
2022-07-28T06:46:52.421Z,2.90
2022-07-28T06:49:24.909Z,3.10
2022-07-28T06:51:57.135Z,2.63
2022-07-28T06:54:29.355Z,3.00
2022-07-28T06:57:01.512Z,3.50
2022-07-28T06:59:35.083Z,3.27
2022-07-28T07:02:07.212Z,3.40
2022-07-28T07:04:39.565Z,3.30
2022-07-28T07:07:42.986Z,3.10
2022-07-28T07:10:15.963Z,3.43
2022-07-28T07:12:48.130Z,3.60
2022-07-28T07:15:20.386Z,3.20
2022-07-28T07:17:54.222Z,3.63
2022-07-28T07:20:26.428Z,3.40
2022-07-28T07:22:58.949Z,4.00
2022-07-28T07:25:30.986Z,3.77
2022-07-28T07:28:03.149Z,3.90
2022-07-28T07:30:35.421Z,3.83
2022-07-28T07:33:10.564Z,3.47
2022-07-28T07:35:43.130Z,3.40
2022-07-28T07:38:15.507Z,3.10
2022-07-28T07:40:51.350Z,3.70
2022-07-28T07:43:23.605Z,4.30
2022-07-28T07:45:55.622Z,3.40
2022-07-28T07:48:30.989Z,3.90
2022-07-28T07:51:03.722Z,3.50
2022-07-28T07:53:36.247Z,3.73
2022-07-28T07:56:08.411Z,3.37
2022-07-28T07:58:40.625Z,3.70
2022-07-28T08:01:13.288Z,3.57
2022-07-28T08:04:05.822Z,3.63
2022-07-28T08:06:40.735Z,3.90
2022-07-28T08:09:13.200Z,3.67
2022-07-28T08:11:46.128Z,3.30
2022-07-28T08:14:18.755Z,4.03
2022-07-28T08:16:51.326Z,3.50
2022-07-28T08:19:23.916Z,3.80
2022-07-28T08:21:56.456Z,3.40
2022-07-28T08:24:33.568Z,4.00
2022-07-28T08:27:06.559Z,4.00
2022-07-28T08:29:39.612Z,3.97
2022-07-28T08:32:15.240Z,4.30
2022-07-28T08:34:47.512Z,4.10
2022-07-28T08:37:19.883Z,4.60
2022-07-28T08:39:52.069Z,4.30
2022-07-28T08:42:39.113Z,4.20
2022-07-28T08:45:37.229Z,4.80
2022-07-28T08:48:12.243Z,4.90
2022-07-28T08:50:46.219Z,4.73
2022-07-28T08:53:20.922Z,5.30
2022-07-28T08:55:53.763Z,4.70
2022-07-28T08:58:26.316Z,4.70
2022-07-28T09:00:59.254Z,4.80
2022-07-28T09:03:42.762Z,4.30
2022-07-28T09:06:15.561Z,5.40
2022-07-28T09:08:48.632Z,5.23
2022-07-28T09:11:20.770Z,4.87
2022-07-28T09:13:54.134Z,5.40
2022-07-28T09:16:27.067Z,5.00
2022-07-28T09:18:59.322Z,4.83
2022-07-28T09:21:31.760Z,5.10
2022-07-28T09:24:04.385Z,4.67
2022-07-28T09:26:37.096Z,4.80
2022-07-28T09:29:29.926Z,5.67
2022-07-28T09:32:02.391Z,4.40
2022-07-28T09:34:44.747Z,5.27
2022-07-28T09:37:27.953Z,4.90
2022-07-28T09:40:11.255Z,5.30
2022-07-28T09:42:50.267Z,4.60
2022-07-28T09:45:29.422Z,5.43
2022-07-28T09:48:11.157Z,4.70
2022-07-28T09:50:44.502Z,4.70
2022-07-28T09:53:27.403Z,5.27
2022-07-28T09:56:02.115Z,4.20
2022-07-28T09:58:34.690Z,4.57
2022-07-28T10:01:13.234Z,4.10
2022-07-28T10:03:51.627Z,4.70
2022-07-28T10:06:31.989Z,4.73
2022-07-28T10:09:08.189Z,5.37
2022-07-28T10:11:45.077Z,4.80
2022-07-28T10:14:21.444Z,4.80
2022-07-28T10:17:06.299Z,4.53
2022-07-28T10:19:41.117Z,4.13
2022-07-28T10:22:14.571Z,5.17
2022-07-28T10:24:52.748Z,4.57
2022-07-28T10:27:26.425Z,4.57
2022-07-28T10:30:15.666Z,4.90
2022-07-28T10:32:47.881Z,4.83
2022-07-28T10:35:21.026Z,4.50
2022-07-28T10:38:05.174Z,4.30
2022-07-28T10:40:46.848Z,4.33
2022-07-28T10:43:20.866Z,4.70
2022-07-28T10:46:05.713Z,4.77
2022-07-28T10:48:38.937Z,4.10
2022-07-28T10:51:12.142Z,4.20
2022-07-28T10:53:59.758Z,4.43
2022-07-28T10:56:46.733Z,4.70
2022-07-28T10:59:39.695Z,4.23
2022-07-28T11:02:55.415Z,4.57
2022-07-28T11:05:39.113Z,5.03
2022-07-28T11:08:20.120Z,4.77
2022-07-28T11:11:08.953Z,5.00
2022-07-28T11:13:41.779Z,4.50
2022-07-28T11:16:13.854Z,5.00
2022-07-28T11:19:04.720Z,4.40
2022-07-28T11:22:12.156Z,4.67
2022-07-28T11:25:17.897Z,4.47
2022-07-28T11:27:54.482Z,4.47
2022-07-28T11:30:32.909Z,4.27
2022-07-28T11:33:25.305Z,4.33
2022-07-28T11:36:17.201Z,4.73
2022-07-28T11:39:43.366Z,4.20
2022-07-28T11:42:35.754Z,4.17
2022-07-28T11:45:23.454Z,4.40
2022-07-28T11:48:16.905Z,4.70
2022-07-28T11:51:14.059Z,4.60
2022-07-28T11:53:49.617Z,3.83
2022-07-28T11:56:25.340Z,3.90
2022-07-28T11:59:02.669Z,4.53
2022-07-28T12:01:36.980Z,4.70
2022-07-28T12:04:28.806Z,4.70
2022-07-28T12:07:02.065Z,4.10
2022-07-28T12:09:42.330Z,4.47
2022-07-28T12:12:14.845Z,4.10
2022-07-28T12:14:46.999Z,4.00
2022-07-28T12:17:19.664Z,4.27
2022-07-28T12:20:06.001Z,4.70
2022-07-28T12:23:07.213Z,4.13
2022-07-28T12:25:47.034Z,3.90
2022-07-28T12:28:22.606Z,4.27
2022-07-28T12:30:54.957Z,4.53
2022-07-28T12:33:40.741Z,4.43
2022-07-28T12:36:12.975Z,4.50
2022-07-28T12:38:51.241Z,4.40
2022-07-28T12:41:32.635Z,4.60
2022-07-28T12:44:06.341Z,3.97
2022-07-28T12:47:08.362Z,3.93
2022-07-28T12:49:43.993Z,4.80
2022-07-28T12:52:22.546Z,4.87
2022-07-28T12:54:56.774Z,4.47
2022-07-28T12:57:49.241Z,4.00
2022-07-28T13:00:31.287Z,4.10
2022-07-28T13:03:29.889Z,3.67
2022-07-28T13:06:10.789Z,3.57
2022-07-28T13:08:46.588Z,4.13
2022-07-28T13:11:45.751Z,3.60
2022-07-28T13:14:39.833Z,3.37
2022-07-28T13:17:13.015Z,3.80
2022-07-28T13:19:46.431Z,3.70
2022-07-28T13:22:30.306Z,3.50
2022-07-28T13:25:07.960Z,3.30
2022-07-28T13:27:41.678Z,3.47
2022-07-28T13:30:14.136Z,3.90
2022-07-28T13:32:46.454Z,3.40
2022-07-28T13:35:20.851Z,3.77
2022-07-28T13:37:53.677Z,3.77
2022-07-28T13:40:25.791Z,3.50
2022-07-28T13:42:58.195Z,3.40
2022-07-28T13:45:30.717Z,3.77
2022-07-28T13:48:06.760Z,3.63
2022-07-28T13:50:39.405Z,4.23
2022-07-28T13:53:12.194Z,3.33
2022-07-28T13:55:44.297Z,3.63
2022-07-28T13:58:16.362Z,3.13
2022-07-28T14:00:48.969Z,3.40
2022-07-28T14:03:21.132Z,3.63
2022-07-28T14:05:53.314Z,3.67
2022-07-28T14:08:26.733Z,3.60
2022-07-28T14:11:01.260Z,4.37
2022-07-28T14:13:47.787Z,3.13
2022-07-28T14:16:24.273Z,3.57
2022-07-28T14:19:13.903Z,3.50
2022-07-28T14:21:48.396Z,4.13
2022-07-28T14:24:21.106Z,3.30
2022-07-28T14:26:53.496Z,4.33
2022-07-28T14:29:25.952Z,3.70
2022-07-28T14:31:59.512Z,3.20
2022-07-28T14:34:31.785Z,3.47
2022-07-28T14:37:08.859Z,3.40
2022-07-28T14:39:42.145Z,3.43
2022-07-28T14:42:14.590Z,3.27
2022-07-28T14:44:46.926Z,3.40
2022-07-28T14:47:20.179Z,3.60
2022-07-28T14:50:13.589Z,4.17
2022-07-28T14:52:45.808Z,3.57
2022-07-28T14:55:20.227Z,3.43
2022-07-28T14:57:55.010Z,3.83
2022-07-28T15:00:28.645Z,3.57
2022-07-28T15:03:01.402Z,3.10
2022-07-28T15:05:34.770Z,3.23
2022-07-28T15:08:06.854Z,3.90
2022-07-28T15:10:39.002Z,3.63
2022-07-28T15:13:11.063Z,3.47
2022-07-28T15:15:44.898Z,4.07
2022-07-28T15:18:19.624Z,3.53
2022-07-28T15:20:52.153Z,3.87
2022-07-28T15:23:27.517Z,3.50
2022-07-28T15:25:59.836Z,3.60
2022-07-28T15:28:33.016Z,4.03
2022-07-28T15:31:08.416Z,3.20
2022-07-28T15:33:48.366Z,3.37
2022-07-28T15:36:30.158Z,3.60
2022-07-28T15:39:08.946Z,3.37
2022-07-28T15:41:46.543Z,3.20
2022-07-28T15:44:22.407Z,3.20
2022-07-28T15:47:00.710Z,3.53
2022-07-28T15:49:36.300Z,3.20
2022-07-28T15:52:08.555Z,3.30
2022-07-28T15:54:40.966Z,3.23
2022-07-28T15:57:14.212Z,3.53
2022-07-28T15:59:50.065Z,3.57
2022-07-28T16:02:23.007Z,3.30
2022-07-28T16:04:55.192Z,3.20
2022-07-28T16:07:29.485Z,3.70
2022-07-28T16:10:03.135Z,3.20
2022-07-28T16:12:35.730Z,3.37
2022-07-28T16:15:08.940Z,3.97
2022-07-28T16:17:44.691Z,3.17
2022-07-28T16:20:17.810Z,3.40
2022-07-28T16:22:51.211Z,3.43
2022-07-28T16:25:26.251Z,3.80
2022-07-28T16:27:58.612Z,2.93
2022-07-28T16:30:33.434Z,3.70
2022-07-28T16:33:08.187Z,3.50
2022-07-28T16:35:40.576Z,3.37
2022-07-28T16:38:12.937Z,3.73
2022-07-28T16:40:45.103Z,3.50
2022-07-28T16:43:17.599Z,3.30
2022-07-28T16:45:49.752Z,3.00
2022-07-28T16:48:22.043Z,3.70
2022-07-28T16:50:54.915Z,3.37
2022-07-28T16:53:27.458Z,3.70
2022-07-28T16:55:59.702Z,3.03
2022-07-28T16:58:31.932Z,3.60
2022-07-28T17:01:04.305Z,3.90
2022-07-28T17:03:36.609Z,3.80
2022-07-28T17:06:10.857Z,3.93
2022-07-28T17:08:43.086Z,3.43
2022-07-28T17:11:15.193Z,3.77
2022-07-28T17:13:48.720Z,3.00
2022-07-28T17:16:21.035Z,3.80
2022-07-28T17:18:53.510Z,3.17
2022-07-28T17:21:26.175Z,3.30
2022-07-28T17:23:58.630Z,3.53
2022-07-28T17:29:26.511Z,3.53
2022-07-28T17:31:59.100Z,3.63
2022-07-28T17:34:32.126Z,3.40
2022-07-28T17:37:05.812Z,3.77
2022-07-28T17:39:38.041Z,3.37
2022-07-28T17:42:10.213Z,3.57
2022-07-28T17:44:42.820Z,3.43
2022-07-28T17:47:16.513Z,3.83
2022-07-28T17:49:52.373Z,3.67
2022-07-28T17:52:25.327Z,4.10
2022-07-28T17:55:16.566Z,3.30
2022-07-28T17:58:22.748Z,3.70
2022-07-28T18:01:12.194Z,4.10
2022-07-28T18:03:56.691Z,3.53
2022-07-28T18:06:35.637Z,3.67
2022-07-28T18:09:10.610Z,3.80
2022-07-28T18:11:55.984Z,3.90
2022-07-28T18:14:31.057Z,3.93
2022-07-28T18:17:03.604Z,4.03
2022-07-28T18:19:35.898Z,3.77
2022-07-28T18:22:08.136Z,3.90
2022-07-28T18:24:40.622Z,4.20
2022-07-28T18:27:12.937Z,3.83
2022-07-28T18:29:45.135Z,3.90
2022-07-28T18:32:18.818Z,3.63
2022-07-28T18:34:50.959Z,4.10
2022-07-28T18:37:23.080Z,3.87
2022-07-28T18:39:55.400Z,3.70
2022-07-28T18:42:27.603Z,3.63
2022-07-28T18:45:02.542Z,4.00
2022-07-28T18:47:37.503Z,3.47
2022-07-28T18:50:30.387Z,4.10
2022-07-28T18:53:31.142Z,3.30
2022-07-28T18:56:27.693Z,3.67
2022-07-28T18:58:59.903Z,4.10
2022-07-28T19:01:32.373Z,3.87
2022-07-28T19:04:05.136Z,4.23
2022-07-28T19:06:37.677Z,4.13
2022-07-28T19:09:09.948Z,4.00
2022-07-28T19:11:45.972Z,4.13
2022-07-28T19:14:19.215Z,3.93
2022-07-28T19:16:52.012Z,3.70
2022-07-28T19:19:24.562Z,4.07
2022-07-28T19:21:56.833Z,3.97
2022-07-28T19:24:29.041Z,4.30
2022-07-28T19:27:05.928Z,3.90
2022-07-28T19:29:38.572Z,4.10
2022-07-28T19:32:10.917Z,3.90
2022-07-28T19:34:43.074Z,4.10
2022-07-28T19:37:17.035Z,3.70
2022-07-28T19:39:50.067Z,4.33
2022-07-28T19:42:22.265Z,3.90
2022-07-28T19:44:56.135Z,4.10
2022-07-28T19:47:28.676Z,3.87
2022-07-28T19:50:00.863Z,4.43
2022-07-28T19:52:33.857Z,4.20
2022-07-28T19:55:07.885Z,4.07
2022-07-28T19:57:42.339Z,3.77
2022-07-28T20:00:19.179Z,4.30
2022-07-28T20:02:51.669Z,4.37
2022-07-28T20:05:24.340Z,4.27
2022-07-28T20:07:56.633Z,3.90
2022-07-28T20:10:29.031Z,4.30
2022-07-28T20:13:02.606Z,3.90
2022-07-28T20:15:35.109Z,3.90
2022-07-28T20:18:09.813Z,4.07
2022-07-28T20:20:42.501Z,4.23
2022-07-28T20:23:15.625Z,4.50
2022-07-28T20:25:47.923Z,3.90
2022-07-28T20:28:21.469Z,4.10
2022-07-28T20:30:54.689Z,4.13
2022-07-28T20:33:27.451Z,4.37
2022-07-28T20:36:00.810Z,4.20
2022-07-28T20:38:33.792Z,3.80
2022-07-28T20:41:07.459Z,4.20
2022-07-28T20:43:39.642Z,4.40
2022-07-28T20:46:11.759Z,4.90
2022-07-28T20:48:43.897Z,5.03
2022-07-28T20:51:18.172Z,5.33
2022-07-28T20:53:50.419Z,4.53
2022-07-28T20:56:34.762Z,4.83
2022-07-28T20:59:07.705Z,4.70
2022-07-28T21:01:41.013Z,5.00
2022-07-28T21:04:13.561Z,4.90
2022-07-28T21:06:51.130Z,4.83
2022-07-28T21:09:24.357Z,5.03
2022-07-28T21:11:56.628Z,5.13
2022-07-28T21:14:28.708Z,5.30
2022-07-28T21:17:03.442Z,5.97
2022-07-28T21:19:35.771Z,5.23
2022-07-28T21:22:08.115Z,5.30
2022-07-28T21:24:40.430Z,5.20
2022-07-28T21:27:12.904Z,5.70
2022-07-28T21:29:48.737Z,6.10
2022-07-28T21:32:21.623Z,5.27
2022-07-28T21:34:53.972Z,5.50
2022-07-28T21:37:26.230Z,6.20
2022-07-28T21:39:58.411Z,5.57
2022-07-28T21:42:31.065Z,5.60
2022-07-28T21:45:03.561Z,5.60
2022-07-28T21:47:40.659Z,5.20
2022-07-28T21:50:13.689Z,6.20
2022-07-28T21:52:45.959Z,5.77
2022-07-28T21:55:18.092Z,5.97
2022-07-28T21:57:50.268Z,6.30
2022-07-28T22:00:22.595Z,5.87
2022-07-28T22:02:54.833Z,6.20
2022-07-28T22:05:27.299Z,6.20
2022-07-28T22:08:00.472Z,6.30
2022-07-28T22:10:32.545Z,6.40
2022-07-28T22:13:04.697Z,6.60
2022-07-28T22:15:36.830Z,6.30
2022-07-28T22:18:13.443Z,6.10
2022-07-28T22:20:48.611Z,5.90
2022-07-28T22:23:29.198Z,5.77
2022-07-28T22:26:02.418Z,6.80
2022-07-28T22:28:34.372Z,6.10
2022-07-28T22:31:08.674Z,7.07
2022-07-28T22:33:41.733Z,5.93
2022-07-28T22:36:14.296Z,7.00
2022-07-28T22:38:46.554Z,6.23
2022-07-28T22:41:18.739Z,6.03
2022-07-28T22:43:51.095Z,6.03
2022-07-28T22:46:23.198Z,6.30
2022-07-28T22:48:55.444Z,5.80
2022-07-28T22:51:27.934Z,6.80
2022-07-28T22:54:00.579Z,6.63
2022-07-28T22:56:35.012Z,5.67
2022-07-28T22:59:10.228Z,5.17
2022-07-28T23:01:44.543Z,5.50
2022-07-28T23:04:17.188Z,5.93
2022-07-28T23:06:50.708Z,6.27
2022-07-28T23:09:23.070Z,6.57
2022-07-28T23:11:55.940Z,6.30
2022-07-28T23:14:28.486Z,6.20
2022-07-28T23:17:00.577Z,5.50
2022-07-28T23:19:32.819Z,5.50
2022-07-28T23:22:05.064Z,5.10
2022-07-28T23:24:37.117Z,5.80
2022-07-28T23:27:09.646Z,6.17
2022-07-28T23:29:41.912Z,5.93
2022-07-28T23:32:17.125Z,5.57
2022-07-28T23:34:49.733Z,5.47
2022-07-28T23:37:21.747Z,5.90
2022-07-28T23:39:54.450Z,5.83
2022-07-28T23:42:26.634Z,5.43
2022-07-28T23:44:58.730Z,5.70
2022-07-28T23:47:30.700Z,6.20
2022-07-28T23:50:05.860Z,6.13
2022-07-28T23:52:38.180Z,5.67
2022-07-28T23:55:10.466Z,6.20
2022-07-28T23:57:42.498Z,6.17
